createdAt,value
2019-01-11T00:00:37.858Z,1028.59
2019-01-11T00:01:38.124Z,1028.61
2019-01-11T00:02:39.692Z,1028.62
2019-01-11T00:03:37.625Z,1028.61
2019-01-11T00:04:37.728Z,1028.62
2019-01-11T00:05:37.877Z,1028.67
2019-01-11T00:06:37.719Z,1028.68
2019-01-11T00:07:37.933Z,1028.63
2019-01-11T00:08:37.577Z,1028.58
2019-01-11T00:09:37.917Z,1028.57
2019-01-11T00:10:37.687Z,1028.56
2019-01-11T00:11:37.765Z,1028.57
2019-01-11T00:12:37.945Z,1028.55
2019-01-11T00:13:38.107Z,1028.56
2019-01-11T00:14:37.955Z,1028.56
2019-01-11T00:15:37.962Z,1028.61
2019-01-11T00:16:37.438Z,1028.56
2019-01-11T00:17:37.870Z,1028.52
2019-01-11T00:18:37.968Z,1028.48
2019-01-11T00:19:37.634Z,1028.48
2019-01-11T00:20:37.608Z,1028.49
2019-01-11T00:21:37.471Z,1028.48
2019-01-11T00:22:37.501Z,1028.47
2019-01-11T00:23:37.586Z,1028.42
2019-01-11T00:24:37.633Z,1028.45
2019-01-11T00:25:37.490Z,1028.44
2019-01-11T00:26:39.867Z,1028.43
2019-01-11T00:27:37.790Z,1028.4
2019-01-11T00:28:37.887Z,1028.43
2019-01-11T00:29:37.611Z,1028.41
2019-01-11T00:30:37.400Z,1028.42
2019-01-11T00:31:37.697Z,1028.39
2019-01-11T00:32:37.869Z,1028.4
2019-01-11T00:33:37.573Z,1028.42
2019-01-11T00:34:37.914Z,1028.4
2019-01-11T00:35:37.725Z,1028.39
2019-01-11T00:36:37.971Z,1028.4
2019-01-11T00:37:37.512Z,1028.4
2019-01-11T00:38:38.044Z,1028.42
2019-01-11T00:39:37.598Z,1028.41
2019-01-11T00:40:38.143Z,1028.46
2019-01-11T00:41:38.136Z,1028.52
2019-01-11T00:42:37.765Z,1028.54
2019-01-11T00:43:37.581Z,1028.57
2019-01-11T00:44:37.913Z,1028.55
2019-01-11T00:45:37.895Z,1028.52
2019-01-11T00:46:37.823Z,1028.5
2019-01-11T00:47:37.596Z,1028.51
2019-01-11T00:48:38.058Z,1028.51
2019-01-11T00:49:37.647Z,1028.5
2019-01-11T00:50:37.494Z,1028.52
2019-01-11T00:51:37.623Z,1028.48
2019-01-11T00:52:37.741Z,1028.5
2019-01-11T00:53:38.109Z,1028.5
2019-01-11T00:54:38.293Z,1028.46
2019-01-11T00:55:37.830Z,1028.48
2019-01-11T00:56:37.659Z,1028.47
2019-01-11T00:57:37.727Z,1028.46
2019-01-11T00:58:37.804Z,1028.51
2019-01-11T00:59:38.085Z,1028.53
2019-01-11T01:00:37.622Z,1028.5
2019-01-11T01:01:37.690Z,1028.49
2019-01-11T01:02:37.664Z,1028.51
2019-01-11T01:03:37.738Z,1028.54
2019-01-11T01:04:37.698Z,1028.53
2019-01-11T01:05:37.754Z,1028.54
2019-01-11T01:06:37.693Z,1028.55
2019-01-11T01:07:37.687Z,1028.54
2019-01-11T01:08:38.026Z,1028.57
2019-01-11T01:09:37.497Z,1028.57
2019-01-11T01:10:37.605Z,1028.53
2019-01-11T01:11:37.593Z,1028.57
2019-01-11T01:12:37.596Z,1028.54
2019-01-11T01:13:37.829Z,1028.56
2019-01-11T01:14:37.975Z,1028.53
2019-01-11T01:15:37.622Z,1028.5
2019-01-11T01:16:37.600Z,1028.53
2019-01-11T01:17:37.741Z,1028.49
2019-01-11T01:18:38.311Z,1028.48
2019-01-11T01:19:37.738Z,1028.47
2019-01-11T01:20:38.042Z,1028.51
2019-01-11T01:21:37.991Z,1028.51
2019-01-11T01:22:38.087Z,1028.52
2019-01-11T01:23:38.343Z,1028.49
2019-01-11T01:24:37.508Z,1028.49
2019-01-11T01:25:38.716Z,1028.47
2019-01-11T01:26:37.648Z,1028.51
2019-01-11T01:27:37.850Z,1028.48
2019-01-11T01:28:37.975Z,1028.53
2019-01-11T01:29:37.995Z,1028.52
2019-01-11T01:30:38.033Z,1028.52
2019-01-11T01:31:37.734Z,1028.53
2019-01-11T01:32:38.050Z,1028.56
2019-01-11T01:33:37.722Z,1028.57
2019-01-11T01:34:37.868Z,1028.56
2019-01-11T01:35:37.944Z,1028.57
2019-01-11T01:36:37.692Z,1028.57
2019-01-11T01:37:38.382Z,1028.57
2019-01-11T01:38:37.689Z,1028.56
2019-01-11T01:39:37.949Z,1028.57
2019-01-11T01:40:37.880Z,1028.56
2019-01-11T01:41:37.531Z,1028.57
2019-01-11T01:42:37.420Z,1028.58
2019-01-11T01:43:37.497Z,1028.58
2019-01-11T01:44:37.613Z,1028.56
2019-01-11T01:45:37.975Z,1028.61
2019-01-11T01:46:37.985Z,1028.58
2019-01-11T01:47:37.871Z,1028.56
2019-01-11T01:48:37.609Z,1028.58
2019-01-11T01:49:38.021Z,1028.58
2019-01-11T01:50:37.567Z,1028.61
2019-01-11T01:51:39.458Z,1028.6
2019-01-11T01:52:37.656Z,1028.62
2019-01-11T01:53:37.760Z,1028.65
2019-01-11T01:54:37.839Z,1028.63
2019-01-11T01:55:37.967Z,1028.6
2019-01-11T01:56:37.660Z,1028.64
2019-01-11T01:57:38.081Z,1028.64
2019-01-11T01:58:37.606Z,1028.63
2019-01-11T01:59:37.604Z,1028.66
2019-01-11T02:00:37.545Z,1028.71
2019-01-11T02:01:37.744Z,1028.72
2019-01-11T02:02:37.567Z,1028.73
2019-01-11T02:03:38.412Z,1028.71
2019-01-11T02:04:37.794Z,1028.72
2019-01-11T02:05:37.775Z,1028.72
2019-01-11T02:06:37.634Z,1028.73
2019-01-11T02:07:38.064Z,1028.74
2019-01-11T02:08:38.178Z,1028.71
2019-01-11T02:09:37.801Z,1028.7
2019-01-11T02:10:37.761Z,1028.69
2019-01-11T02:11:37.871Z,1028.65
2019-01-11T02:12:38.009Z,1028.65
2019-01-11T02:13:37.681Z,1028.64
2019-01-11T02:14:37.709Z,1028.61
2019-01-11T02:15:37.643Z,1028.63
2019-01-11T02:16:37.836Z,1028.62
2019-01-11T02:17:37.649Z,1028.63
2019-01-11T02:18:37.389Z,1028.61
2019-01-11T02:19:38.553Z,1028.62
2019-01-11T02:20:37.693Z,1028.6
2019-01-11T02:21:37.430Z,1028.63
2019-01-11T02:22:37.588Z,1028.64
2019-01-11T02:23:37.956Z,1028.62
2019-01-11T02:24:37.838Z,1028.58
2019-01-11T02:25:37.765Z,1028.59
2019-01-11T02:26:37.960Z,1028.59
2019-01-11T02:27:37.783Z,1028.56
2019-01-11T02:28:37.899Z,1028.6
2019-01-11T02:29:37.764Z,1028.52
2019-01-11T02:30:37.812Z,1028.53
2019-01-11T02:31:37.534Z,1028.51
2019-01-11T02:32:37.785Z,1028.45
2019-01-11T02:33:37.904Z,1028.45
2019-01-11T02:34:37.806Z,1028.46
2019-01-11T02:35:39.372Z,1028.41
2019-01-11T02:36:37.488Z,1028.46
2019-01-11T02:37:37.702Z,1028.45
2019-01-11T02:38:37.779Z,1028.46
2019-01-11T02:39:37.625Z,1028.42
2019-01-11T02:40:37.855Z,1028.44
2019-01-11T02:41:37.985Z,1028.47
2019-01-11T02:42:37.614Z,1028.48
2019-01-11T02:43:37.607Z,1028.47
2019-01-11T02:44:37.680Z,1028.45
2019-01-11T02:45:37.671Z,1028.46
2019-01-11T02:46:37.592Z,1028.47
2019-01-11T02:47:38.203Z,1028.49
2019-01-11T02:48:37.829Z,1028.47
2019-01-11T02:49:40.604Z,1028.44
2019-01-11T02:50:37.823Z,1028.44
2019-01-11T02:51:37.649Z,1028.43
2019-01-11T02:52:37.704Z,1028.4
2019-01-11T02:53:37.575Z,1028.39
2019-01-11T02:54:37.640Z,1028.35
2019-01-11T02:55:37.966Z,1028.35
2019-01-11T02:56:38.291Z,1028.33
2019-01-11T02:57:37.931Z,1028.36
2019-01-11T02:58:37.625Z,1028.34
2019-01-11T02:59:37.990Z,1028.35
2019-01-11T03:00:37.833Z,1028.35
2019-01-11T03:01:37.691Z,1028.37
2019-01-11T03:02:37.642Z,1028.34
2019-01-11T03:03:37.714Z,1028.31
2019-01-11T03:04:37.472Z,1028.31
2019-01-11T03:05:37.496Z,1028.32
2019-01-11T03:06:37.854Z,1028.34
2019-01-11T03:07:37.811Z,1028.31
2019-01-11T03:08:37.971Z,1028.35
2019-01-11T03:09:37.820Z,1028.36
2019-01-11T03:10:37.743Z,1028.35
2019-01-11T03:11:37.731Z,1028.33
2019-01-11T03:12:37.958Z,1028.31
2019-01-11T03:13:37.861Z,1028.29
2019-01-11T03:14:37.709Z,1028.26
2019-01-11T03:15:37.834Z,1028.27
2019-01-11T03:16:37.630Z,1028.29
2019-01-11T03:17:37.523Z,1028.29
2019-01-11T03:18:37.838Z,1028.28
2019-01-11T03:19:38.417Z,1028.32
2019-01-11T03:20:38.161Z,1028.31
2019-01-11T03:21:37.530Z,1028.27
2019-01-11T03:22:38.157Z,1028.3
2019-01-11T03:23:37.771Z,1028.33
2019-01-11T03:24:37.612Z,1028.33
2019-01-11T03:25:37.395Z,1028.33
2019-01-11T03:26:37.589Z,1028.34
2019-01-11T03:27:37.612Z,1028.34
2019-01-11T03:28:37.435Z,1028.3
2019-01-11T03:29:37.647Z,1028.29
2019-01-11T03:30:38.110Z,1028.29
2019-01-11T03:31:37.594Z,1028.29
2019-01-11T03:32:37.710Z,1028.21
2019-01-11T03:33:37.892Z,1028.26
2019-01-11T03:34:37.914Z,1028.27
2019-01-11T03:35:37.858Z,1028.29
2019-01-11T03:36:37.387Z,1028.31
2019-01-11T03:37:37.739Z,1028.29
2019-01-11T03:38:37.668Z,1028.28
2019-01-11T03:39:37.581Z,1028.29
2019-01-11T03:40:37.573Z,1028.25
2019-01-11T03:41:37.538Z,1028.23
2019-01-11T03:42:37.679Z,1028.2
2019-01-11T03:43:37.855Z,1028.26
2019-01-11T03:44:37.782Z,1028.23
2019-01-11T03:45:37.924Z,1028.19
2019-01-11T03:46:37.733Z,1028.24
2019-01-11T03:47:38.229Z,1028.26
2019-01-11T03:48:37.565Z,1028.26
2019-01-11T03:49:37.938Z,1028.26
2019-01-11T03:50:37.643Z,1028.29
2019-01-11T03:51:37.496Z,1028.27
2019-01-11T03:52:38.229Z,1028.28
2019-01-11T03:53:37.501Z,1028.35
2019-01-11T03:54:37.988Z,1028.36
2019-01-11T03:55:37.969Z,1028.36
2019-01-11T03:56:38.108Z,1028.33
2019-01-11T03:57:37.538Z,1028.36
2019-01-11T03:58:37.716Z,1028.37
2019-01-11T03:59:37.897Z,1028.38
2019-01-11T04:00:38.820Z,1028.37
2019-01-11T04:01:37.708Z,1028.42
2019-01-11T04:02:38.054Z,1028.4
2019-01-11T04:03:37.594Z,1028.37
2019-01-11T04:04:37.601Z,1028.38
2019-01-11T04:05:38.067Z,1028.41
2019-01-11T04:06:37.847Z,1028.41
2019-01-11T04:07:37.726Z,1028.37
2019-01-11T04:08:37.577Z,1028.36
2019-01-11T04:09:37.779Z,1028.34
2019-01-11T04:10:37.445Z,1028.35
2019-01-11T04:11:38.214Z,1028.37
2019-01-11T04:12:38.164Z,1028.4
2019-01-11T04:13:39.395Z,1028.41
2019-01-11T04:14:37.633Z,1028.41
2019-01-11T04:15:37.805Z,1028.44
2019-01-11T04:16:38.848Z,1028.45
2019-01-11T04:17:37.776Z,1028.44
2019-01-11T04:18:37.963Z,1028.47
2019-01-11T04:19:38.040Z,1028.47
2019-01-11T04:20:37.546Z,1028.45
2019-01-11T04:21:37.781Z,1028.44
2019-01-11T04:22:37.911Z,1028.45
2019-01-11T04:23:37.787Z,1028.44
2019-01-11T04:24:37.572Z,1028.38
2019-01-11T04:25:37.539Z,1028.4
2019-01-11T04:26:37.703Z,1028.39
2019-01-11T04:27:37.650Z,1028.39
2019-01-11T04:28:37.362Z,1028.37
2019-01-11T04:29:37.722Z,1028.35
2019-01-11T04:30:37.894Z,1028.3
2019-01-11T04:31:37.814Z,1028.3
2019-01-11T04:32:37.601Z,1028.29
2019-01-11T04:33:37.603Z,1028.33
2019-01-11T04:34:37.879Z,1028.3
2019-01-11T04:35:37.974Z,1028.31
2019-01-11T04:36:37.643Z,1028.38
2019-01-11T04:37:37.655Z,1028.37
2019-01-11T04:38:37.700Z,1028.36
2019-01-11T04:39:37.652Z,1028.38
2019-01-11T04:40:37.987Z,1028.45
2019-01-11T04:41:38.110Z,1028.49
2019-01-11T04:42:37.470Z,1028.5
2019-01-11T04:43:37.906Z,1028.45
2019-01-11T04:44:38.513Z,1028.45
2019-01-11T04:45:38.148Z,1028.42
2019-01-11T04:46:37.880Z,1028.46
2019-01-11T04:47:37.859Z,1028.46
2019-01-11T04:48:37.506Z,1028.48
2019-01-11T04:49:37.638Z,1028.48
2019-01-11T04:50:38.144Z,1028.48
2019-01-11T04:51:37.952Z,1028.47
2019-01-11T04:52:37.603Z,1028.51
2019-01-11T04:53:37.792Z,1028.5
2019-01-11T04:54:37.419Z,1028.47
2019-01-11T04:55:37.673Z,1028.45
2019-01-11T04:56:37.802Z,1028.41
2019-01-11T04:57:38.237Z,1028.37
2019-01-11T04:58:37.562Z,1028.39
2019-01-11T04:59:38.283Z,1028.36
2019-01-11T05:00:37.899Z,1028.35
2019-01-11T05:01:37.622Z,1028.37
2019-01-11T05:02:37.555Z,1028.32
2019-01-11T05:03:37.703Z,1028.34
2019-01-11T05:04:37.826Z,1028.31
2019-01-11T05:05:37.578Z,1028.31
2019-01-11T05:06:37.922Z,1028.34
2019-01-11T05:07:37.885Z,1028.34
2019-01-11T05:08:37.778Z,1028.31
2019-01-11T05:09:37.721Z,1028.33
2019-01-11T05:10:37.547Z,1028.35
2019-01-11T05:11:37.622Z,1028.3
2019-01-11T05:12:37.541Z,1028.32
2019-01-11T05:13:37.452Z,1028.33
2019-01-11T05:14:38.164Z,1028.33
2019-01-11T05:15:37.659Z,1028.28
2019-01-11T05:16:40.013Z,1028.3
2019-01-11T05:17:38.399Z,1028.3
2019-01-11T05:18:37.410Z,1028.3
2019-01-11T05:19:37.855Z,1028.32
2019-01-11T05:20:37.341Z,1028.3
2019-01-11T05:21:37.380Z,1028.29
2019-01-11T05:22:37.817Z,1028.25
2019-01-11T05:23:37.660Z,1028.19
2019-01-11T05:24:37.561Z,1028.22
2019-01-11T05:25:37.594Z,1028.24
2019-01-11T05:26:37.518Z,1028.21
2019-01-11T05:27:37.693Z,1028.21
2019-01-11T05:28:37.618Z,1028.21
2019-01-11T05:29:37.754Z,1028.2
2019-01-11T05:30:37.692Z,1028.2
2019-01-11T05:31:39.458Z,1028.21
2019-01-11T05:32:37.345Z,1028.22
2019-01-11T05:33:37.864Z,1028.26
2019-01-11T05:34:37.823Z,1028.24
2019-01-11T05:35:37.522Z,1028.24
2019-01-11T05:36:37.951Z,1028.24
2019-01-11T05:37:37.932Z,1028.23
2019-01-11T05:38:37.362Z,1028.3
2019-01-11T05:39:37.751Z,1028.26
2019-01-11T05:40:37.591Z,1028.27
2019-01-11T05:41:37.662Z,1028.24
2019-01-11T05:42:37.941Z,1028.24
2019-01-11T05:43:37.783Z,1028.26
2019-01-11T05:44:37.890Z,1028.24
2019-01-11T05:45:37.679Z,1028.27
2019-01-11T05:46:37.556Z,1028.24
2019-01-11T05:47:38.330Z,1028.22
2019-01-11T05:48:37.869Z,1028.23
2019-01-11T05:49:37.482Z,1028.2
2019-01-11T05:50:38.130Z,1028.23
2019-01-11T05:51:38.366Z,1028.25
2019-01-11T05:52:37.817Z,1028.23
2019-01-11T05:53:37.818Z,1028.25
2019-01-11T05:54:37.822Z,1028.24
2019-01-11T05:55:37.779Z,1028.25
2019-01-11T05:56:37.874Z,1028.25
2019-01-11T05:57:38.086Z,1028.25
2019-01-11T05:58:37.514Z,1028.25
2019-01-11T05:59:37.775Z,1028.25
2019-01-11T06:00:37.441Z,1028.26
2019-01-11T06:01:38.267Z,1028.27
2019-01-11T06:02:39.377Z,1028.27
2019-01-11T06:03:38.123Z,1028.24
2019-01-11T06:04:39.031Z,1028.26
2019-01-11T06:05:37.953Z,1028.23
2019-01-11T06:06:37.643Z,1028.26
2019-01-11T06:07:37.318Z,1028.28
2019-01-11T06:08:37.849Z,1028.23
2019-01-11T06:09:38.033Z,1028.25
2019-01-11T06:10:37.581Z,1028.23
2019-01-11T06:11:37.616Z,1028.25
2019-01-11T06:12:37.442Z,1028.23
2019-01-11T06:13:37.753Z,1028.26
2019-01-11T06:14:37.631Z,1028.25
2019-01-11T06:15:38.322Z,1028.26
2019-01-11T06:16:37.668Z,1028.27
2019-01-11T06:17:37.670Z,1028.24
2019-01-11T06:18:37.708Z,1028.24
2019-01-11T06:19:37.622Z,1028.22
2019-01-11T06:20:37.606Z,1028.22
2019-01-11T06:21:37.658Z,1028.22
2019-01-11T06:22:37.636Z,1028.23
2019-01-11T06:23:37.669Z,1028.23
2019-01-11T06:24:37.650Z,1028.22
2019-01-11T06:25:37.668Z,1028.21
2019-01-11T06:26:37.471Z,1028.22
2019-01-11T06:27:38.192Z,1028.21
2019-01-11T06:28:37.661Z,1028.22
2019-01-11T06:29:37.434Z,1028.19
2019-01-11T06:30:37.831Z,1028.18
2019-01-11T06:31:37.919Z,1028.19
2019-01-11T06:32:38.016Z,1028.22
2019-01-11T06:33:39.005Z,1028.18
2019-01-11T06:34:37.274Z,1028.16
2019-01-11T06:35:37.942Z,1028.13
2019-01-11T06:36:37.629Z,1028.17
2019-01-11T06:37:37.739Z,1028.17
2019-01-11T06:38:37.578Z,1028.14
2019-01-11T06:39:37.264Z,1028.11
2019-01-11T06:40:37.862Z,1028.14
2019-01-11T06:41:37.479Z,1028.11
2019-01-11T06:42:37.686Z,1028.09
2019-01-11T06:43:37.651Z,1028.11
2019-01-11T06:44:39.265Z,1028.11
2019-01-11T06:45:37.804Z,1028.09
2019-01-11T06:46:38.199Z,1028.12
2019-01-11T06:47:39.434Z,1028.14
2019-01-11T06:48:37.345Z,1028.13
2019-01-11T06:49:37.524Z,1028.12
2019-01-11T06:50:37.772Z,1028.15
2019-01-11T06:51:37.984Z,1028.13
2019-01-11T06:52:37.571Z,1028.15
2019-01-11T06:53:37.843Z,1028.15
2019-01-11T06:54:38.051Z,1028.17
2019-01-11T06:55:37.968Z,1028.13
2019-01-11T06:56:39.270Z,1028.17
2019-01-11T06:57:37.646Z,1028.17
2019-01-11T06:58:37.697Z,1028.16
2019-01-11T06:59:37.506Z,1028.18
2019-01-11T07:00:37.398Z,1028.16
2019-01-11T07:01:37.615Z,1028.19
2019-01-11T07:02:37.778Z,1028.18
2019-01-11T07:03:37.919Z,1028.18
2019-01-11T07:04:37.506Z,1028.17
2019-01-11T07:05:37.780Z,1028.11
2019-01-11T07:06:37.903Z,1028.13
2019-01-11T07:07:37.344Z,1028.13
2019-01-11T07:08:37.842Z,1028.09
2019-01-11T07:09:37.975Z,1028.08
2019-01-11T07:10:37.499Z,1028.06
2019-01-11T07:11:37.825Z,1028.09
2019-01-11T07:12:37.331Z,1028.12
2019-01-11T07:13:37.561Z,1028.11
2019-01-11T07:14:38.403Z,1028.1
2019-01-11T07:15:37.722Z,1028.12
2019-01-11T07:16:37.380Z,1028.11
2019-01-11T07:17:37.800Z,1028.12
2019-01-11T07:18:37.639Z,1028.12
2019-01-11T07:19:37.673Z,1028.1
2019-01-11T07:20:44.615Z,1028.1
2019-01-11T07:21:37.767Z,1028.12
2019-01-11T07:22:38.082Z,1028.08
2019-01-11T07:23:37.597Z,1028.1
2019-01-11T07:24:37.776Z,1028.11
2019-01-11T07:25:37.857Z,1028.08
2019-01-11T07:26:37.332Z,1028.11
2019-01-11T07:27:37.602Z,1028.12
2019-01-11T07:28:37.802Z,1028.12
2019-01-11T07:29:37.974Z,1028.07
2019-01-11T07:30:37.832Z,1028.1
2019-01-11T07:31:37.913Z,1028.11
2019-01-11T07:32:37.628Z,1028.16
2019-01-11T07:33:37.382Z,1028.17
2019-01-11T07:34:38.215Z,1028.13
2019-01-11T07:35:37.633Z,1028.13
2019-01-11T07:36:37.946Z,1028.12
2019-01-11T07:37:39.283Z,1028.12
2019-01-11T07:38:37.372Z,1028.08
2019-01-11T07:39:39.474Z,1028.08
2019-01-11T07:40:37.429Z,1028.05
2019-01-11T07:41:38.437Z,1028.09
2019-01-11T07:42:37.781Z,1028.15
2019-01-11T07:43:37.824Z,1028.14
2019-01-11T07:44:37.624Z,1028.15
2019-01-11T07:45:37.260Z,1028.14
2019-01-11T07:46:37.837Z,1028.14
2019-01-11T07:47:37.934Z,1028.12
2019-01-11T07:48:37.283Z,1028.14
2019-01-11T07:49:37.836Z,1028.15
2019-01-11T07:50:37.965Z,1028.1
2019-01-11T07:51:37.767Z,1028.12
2019-01-11T07:52:40.414Z,1028.14
2019-01-11T07:53:37.660Z,1028.14
2019-01-11T07:54:37.667Z,1028.11
2019-01-11T07:55:37.791Z,1028.13
2019-01-11T07:56:37.632Z,1028.16
2019-01-11T07:57:37.348Z,1028.14
2019-01-11T07:58:37.788Z,1028.16
2019-01-11T07:59:37.706Z,1028.17
2019-01-11T08:00:37.602Z,1028.2
2019-01-11T08:01:37.702Z,1028.17
2019-01-11T08:02:37.419Z,1028.19
2019-01-11T08:03:37.389Z,1028.17
2019-01-11T08:04:37.839Z,1028.16
2019-01-11T08:05:37.721Z,1028.15
2019-01-11T08:06:37.925Z,1028.19
2019-01-11T08:07:37.704Z,1028.18
2019-01-11T08:08:37.375Z,1028.19
2019-01-11T08:09:37.595Z,1028.2
2019-01-11T08:10:37.251Z,1028.17
2019-01-11T08:11:37.930Z,1028.21
2019-01-11T08:12:37.720Z,1028.18
2019-01-11T08:13:37.841Z,1028.14
2019-01-11T08:14:37.451Z,1028.13
2019-01-11T08:15:37.610Z,1028.13
2019-01-11T08:16:37.799Z,1028.17
2019-01-11T08:17:37.503Z,1028.13
2019-01-11T08:18:38.583Z,1028.15
2019-01-11T08:19:37.424Z,1028.14
2019-01-11T08:20:37.409Z,1028.17
2019-01-11T08:21:37.862Z,1028.17
2019-01-11T08:22:37.327Z,1028.19
2019-01-11T08:23:37.830Z,1028.17
2019-01-11T08:24:37.676Z,1028.18
2019-01-11T08:25:37.689Z,1028.19
2019-01-11T08:26:37.910Z,1028.14
2019-01-11T08:27:37.392Z,1028.14
2019-01-11T08:28:37.349Z,1028.13
2019-01-11T08:29:38.014Z,1028.17
2019-01-11T08:30:37.941Z,1028.17
2019-01-11T08:31:37.750Z,1028.15
2019-01-11T08:32:37.634Z,1028.17
2019-01-11T08:33:37.749Z,1028.19
2019-01-11T08:34:37.783Z,1028.17
2019-01-11T08:35:37.952Z,1028.18
2019-01-11T08:36:37.494Z,1028.18
2019-01-11T08:37:38.426Z,1028.15
2019-01-11T08:38:37.810Z,1028.19
2019-01-11T08:39:38.444Z,1028.17
2019-01-11T08:40:38.238Z,1028.13
2019-01-11T08:41:37.449Z,1028.14
2019-01-11T08:42:37.932Z,1028.16
2019-01-11T08:43:37.336Z,1028.16
2019-01-11T08:44:37.482Z,1028.19
2019-01-11T08:45:38.394Z,1028.18
2019-01-11T08:46:37.634Z,1028.18
2019-01-11T08:47:37.980Z,1028.17
2019-01-11T08:48:37.986Z,1028.14
2019-01-11T08:49:39.306Z,1028.13
2019-01-11T08:50:37.781Z,1028.18
2019-01-11T08:51:37.754Z,1028.15
2019-01-11T08:52:38.093Z,1028.21
2019-01-11T08:53:38.099Z,1028.17
2019-01-11T08:54:37.416Z,1028.14
2019-01-11T08:55:37.797Z,1028.1
2019-01-11T08:56:37.946Z,1028.09
2019-01-11T08:57:37.287Z,1028.12
2019-01-11T08:58:37.871Z,1028.09
2019-01-11T08:59:37.307Z,1028.07
2019-01-11T09:00:37.488Z,1028.07
2019-01-11T09:01:37.754Z,1028.04
2019-01-11T09:02:37.716Z,1028.05
2019-01-11T09:03:37.653Z,1028.07
2019-01-11T09:04:37.822Z,1028.06
2019-01-11T09:05:37.385Z,1028.06
2019-01-11T09:06:37.882Z,1028.07
2019-01-11T09:07:37.413Z,1028.06
2019-01-11T09:08:37.696Z,1028.11
2019-01-11T09:09:37.866Z,1028.14
2019-01-11T09:10:37.318Z,1028.17
2019-01-11T09:11:37.715Z,1028.16
2019-01-11T09:12:37.351Z,1028.17
2019-01-11T09:13:37.467Z,1028.15
2019-01-11T09:14:37.523Z,1028.18
2019-01-11T09:15:37.728Z,1028.12
2019-01-11T09:16:37.744Z,1028.11
2019-01-11T09:17:38.254Z,1028.09
2019-01-11T09:18:37.527Z,1028.04
2019-01-11T09:19:37.864Z,1028.06
2019-01-11T09:20:37.642Z,1028.05
2019-01-11T09:21:42.078Z,1028.05
2019-01-11T09:22:37.667Z,1028
2019-01-11T09:23:39.446Z,1028.01
2019-01-11T09:24:37.324Z,1028.02
2019-01-11T09:25:37.828Z,1027.98
2019-01-11T09:26:37.615Z,1027.99
2019-01-11T09:27:37.691Z,1027.97
2019-01-11T09:28:37.452Z,1028.01
2019-01-11T09:29:37.373Z,1028
2019-01-11T09:30:37.380Z,1028.01
2019-01-11T09:31:39.400Z,1027.98
2019-01-11T09:32:38.172Z,1028.03
2019-01-11T09:33:38.127Z,1028.01
2019-01-11T09:34:37.357Z,1027.98
2019-01-11T09:35:37.884Z,1027.98
2019-01-11T09:36:37.485Z,1027.95
2019-01-11T09:37:37.681Z,1027.93
2019-01-11T09:38:37.723Z,1027.94
2019-01-11T09:39:37.573Z,1027.98
2019-01-11T09:40:37.330Z,1027.97
2019-01-11T09:41:37.825Z,1028.01
2019-01-11T09:42:37.363Z,1028.01
2019-01-11T09:43:37.820Z,1028
2019-01-11T09:44:37.739Z,1027.98
2019-01-11T09:45:37.396Z,1028
2019-01-11T09:46:37.754Z,1028.05
2019-01-11T09:47:37.776Z,1028.06
2019-01-11T09:48:37.684Z,1028.02
2019-01-11T09:49:37.669Z,1028.03
2019-01-11T09:50:37.784Z,1028.04
2019-01-11T09:51:37.504Z,1028.04
2019-01-11T09:52:37.788Z,1028.02
2019-01-11T09:53:37.332Z,1028.03
2019-01-11T09:54:37.911Z,1028.06
2019-01-11T09:55:37.838Z,1028.07
2019-01-11T09:56:37.375Z,1028.07
2019-01-11T09:57:37.997Z,1028.09
2019-01-11T09:58:37.389Z,1028.1
2019-01-11T09:59:37.763Z,1028.05
2019-01-11T10:00:37.783Z,1028.03
2019-01-11T10:01:38.199Z,1028.03
2019-01-11T10:02:38.070Z,1028
2019-01-11T10:03:37.793Z,1027.96
2019-01-11T10:04:37.589Z,1027.93
2019-01-11T10:05:37.804Z,1027.93
2019-01-11T10:06:37.249Z,1027.96
2019-01-11T10:07:37.831Z,1027.95
2019-01-11T10:08:37.921Z,1027.9
2019-01-11T10:09:37.544Z,1027.9
2019-01-11T10:10:37.754Z,1027.94
2019-01-11T10:11:37.150Z,1027.94
2019-01-11T10:12:37.632Z,1027.92
2019-01-11T10:13:37.857Z,1027.96
2019-01-11T10:14:37.679Z,1027.95
2019-01-11T10:15:37.537Z,1027.98
2019-01-11T10:16:37.315Z,1028.02
2019-01-11T10:17:37.750Z,1027.98
2019-01-11T10:18:37.698Z,1027.95
2019-01-11T10:19:37.649Z,1028
2019-01-11T10:20:37.723Z,1027.98
2019-01-11T10:21:37.782Z,1027.96
2019-01-11T10:22:37.455Z,1027.93
2019-01-11T10:23:37.801Z,1027.9
2019-01-11T10:24:37.393Z,1027.9
2019-01-11T10:25:37.381Z,1027.86
2019-01-11T10:26:37.560Z,1027.88
2019-01-11T10:27:37.372Z,1027.87
2019-01-11T10:28:38.275Z,1027.88
2019-01-11T10:29:37.890Z,1027.83
2019-01-11T10:30:39.246Z,1027.81
2019-01-11T10:31:37.436Z,1027.74
2019-01-11T10:32:37.326Z,1027.73
2019-01-11T10:33:37.684Z,1027.71
2019-01-11T10:34:37.918Z,1027.67
2019-01-11T10:35:37.804Z,1027.73
2019-01-11T10:36:37.497Z,1027.65
2019-01-11T10:37:37.718Z,1027.67
2019-01-11T10:38:37.520Z,1027.67
2019-01-11T10:39:37.700Z,1027.63
2019-01-11T10:40:37.728Z,1027.62
2019-01-11T10:41:37.802Z,1027.65
2019-01-11T10:42:39.820Z,1027.63
2019-01-11T10:43:39.268Z,1027.62
2019-01-11T10:44:37.650Z,1027.67
2019-01-11T10:45:37.410Z,1027.65
2019-01-11T10:46:37.363Z,1027.62
2019-01-11T10:47:37.787Z,1027.66
2019-01-11T10:48:37.709Z,1027.59
2019-01-11T10:49:37.679Z,1027.58
2019-01-11T10:50:37.956Z,1027.56
2019-01-11T10:51:38.153Z,1027.56
2019-01-11T10:52:37.374Z,1027.55
2019-01-11T10:53:37.159Z,1027.56
2019-01-11T10:54:37.840Z,1027.56
2019-01-11T10:55:37.657Z,1027.57
2019-01-11T10:56:37.470Z,1027.55
2019-01-11T10:57:37.437Z,1027.55
2019-01-11T10:58:37.413Z,1027.54
2019-01-11T10:59:37.513Z,1027.53
2019-01-11T11:00:37.468Z,1027.54
2019-01-11T11:01:37.324Z,1027.47
2019-01-11T11:02:37.449Z,1027.5
2019-01-11T11:03:39.405Z,1027.51
2019-01-11T11:04:37.292Z,1027.48
2019-01-11T11:05:37.280Z,1027.49
2019-01-11T11:06:37.456Z,1027.48
2019-01-11T11:07:37.741Z,1027.52
2019-01-11T11:08:37.646Z,1027.46
2019-01-11T11:09:37.552Z,1027.44
2019-01-11T11:10:37.361Z,1027.46
2019-01-11T11:11:37.698Z,1027.43
2019-01-11T11:12:37.182Z,1027.37
2019-01-11T11:13:37.823Z,1027.3
2019-01-11T11:14:37.769Z,1027.34
2019-01-11T11:15:37.680Z,1027.34
2019-01-11T11:16:37.699Z,1027.42
2019-01-11T11:17:38.117Z,1027.43
2019-01-11T11:18:37.439Z,1027.4
2019-01-11T11:19:37.445Z,1027.38
2019-01-11T11:20:38.259Z,1027.4
2019-01-11T11:21:37.626Z,1027.41
2019-01-11T11:22:37.873Z,1027.44
2019-01-11T11:23:37.373Z,1027.36
2019-01-11T11:24:37.753Z,1027.36
2019-01-11T11:25:37.699Z,1027.3
2019-01-11T11:26:37.544Z,1027.31
2019-01-11T11:27:37.411Z,1027.32
2019-01-11T11:28:37.795Z,1027.29
2019-01-11T11:29:37.579Z,1027.26
2019-01-11T11:30:37.833Z,1027.25
2019-01-11T11:31:37.174Z,1027.24
2019-01-11T11:32:37.701Z,1027.24
2019-01-11T11:33:37.720Z,1027.23
2019-01-11T11:34:37.170Z,1027.22
2019-01-11T11:35:37.403Z,1027.2
2019-01-11T11:36:37.763Z,1027.23
2019-01-11T11:37:37.366Z,1027.19
2019-01-11T11:38:37.750Z,1027.21
2019-01-11T11:39:37.342Z,1027.17
2019-01-11T11:40:37.430Z,1027.19
2019-01-11T11:41:37.880Z,1027.21
2019-01-11T11:42:37.360Z,1027.18
2019-01-11T11:43:37.456Z,1027.16
2019-01-11T11:44:37.174Z,1027.12
2019-01-11T11:45:37.684Z,1027.1
2019-01-11T11:46:37.601Z,1027.16
2019-01-11T11:47:37.710Z,1027.17
2019-01-11T11:48:38.122Z,1027.17
2019-01-11T11:49:37.354Z,1027.15
2019-01-11T11:50:37.417Z,1027.15
2019-01-11T11:51:41.732Z,1027.14
2019-01-11T11:52:38.044Z,1027.13
2019-01-11T11:53:38.237Z,1027.17
2019-01-11T11:54:37.497Z,1027.16
2019-01-11T11:55:37.404Z,1027.15
2019-01-11T11:56:37.677Z,1027.16
2019-01-11T11:57:37.603Z,1027.16
2019-01-11T11:58:37.723Z,1027.14
2019-01-11T11:59:37.716Z,1027.16
2019-01-11T12:00:37.884Z,1027.14
2019-01-11T12:01:38.347Z,1027.13
2019-01-11T12:02:38.319Z,1027.01
2019-01-11T12:03:37.986Z,1026.97
2019-01-11T12:04:37.627Z,1026.92
2019-01-11T12:05:37.485Z,1026.92
2019-01-11T12:06:37.451Z,1026.88
2019-01-11T12:07:37.846Z,1026.91
2019-01-11T12:08:37.901Z,1026.92